createdAt,value
2022-08-05T00:02:23.989Z,9.52
2022-08-05T00:04:55.152Z,8.38
2022-08-05T00:07:59.402Z,8.57
2022-08-05T00:10:14.636Z,8.77
2022-08-05T00:12:55.817Z,7.55
2022-08-05T00:15:56.020Z,7.78
2022-08-05T00:18:21.419Z,8.68
2022-08-05T00:20:50.631Z,6.78
2022-08-05T00:23:31.087Z,6.35
2022-08-05T00:26:09.900Z,6.93
2022-08-05T00:28:38.789Z,6.28
2022-08-05T00:31:08.619Z,6.60
2022-08-05T00:34:56.731Z,6.70
2022-08-05T00:37:11.940Z,6.35
2022-08-05T00:39:58.830Z,6.40
2022-08-05T00:42:34.474Z,5.80
2022-08-05T00:45:03.179Z,5.93
2022-08-05T00:47:52.945Z,5.65
2022-08-05T00:50:20.798Z,5.63
2022-08-05T00:52:50.060Z,5.38
2022-08-05T00:55:23.495Z,5.65
2022-08-05T00:58:11.565Z,6.13
2022-08-05T01:00:41.122Z,5.32
2022-08-05T01:03:12.681Z,5.97
2022-08-05T01:05:51.813Z,5.50
2022-08-05T01:11:14.372Z,5.53
2022-08-05T01:13:59.751Z,5.70
2022-08-05T01:16:31.219Z,5.53
2022-08-05T01:19:02.679Z,6.15
2022-08-05T01:21:42.648Z,5.55
2022-08-05T01:24:26.635Z,5.88
2022-08-05T01:27:19.083Z,5.50
2022-08-05T01:29:51.882Z,5.65
2022-08-05T01:32:23.288Z,5.68
2022-08-05T01:34:59.096Z,5.55
2022-08-05T01:37:33.702Z,5.30
2022-08-05T01:40:07.691Z,5.57
2022-08-05T01:42:38.522Z,5.22
2022-08-05T01:45:11.580Z,4.85
2022-08-05T01:47:45.839Z,4.80
2022-08-05T01:50:19.943Z,5.63
2022-08-05T01:53:00.744Z,4.85
2022-08-05T01:55:30.710Z,4.97
2022-08-05T01:58:12.156Z,4.90
2022-08-05T02:00:46.615Z,5.75
2022-08-05T02:03:24.438Z,5.13
2022-08-05T02:06:03.365Z,5.70
2022-08-05T02:08:32.469Z,5.35
2022-08-05T02:11:04.525Z,4.90
2022-08-05T02:13:36.617Z,5.30
2022-08-05T02:16:25.072Z,4.93
2022-08-05T02:18:58.081Z,5.20
2022-08-05T02:21:28.589Z,4.93
2022-08-05T02:24:01.774Z,5.38
2022-08-05T02:26:37.342Z,5.63
2022-08-05T02:29:21.455Z,5.13
2022-08-05T02:31:55.975Z,5.88
2022-08-05T02:34:26.042Z,5.65
2022-08-05T02:36:57.861Z,4.95
2022-08-05T02:39:27.051Z,5.53
2022-08-05T02:42:00.651Z,4.88
2022-08-05T02:44:30.772Z,5.30
2022-08-05T02:47:01.339Z,5.45
2022-08-05T02:49:36.658Z,5.25
2022-08-05T02:52:07.701Z,5.28
2022-08-05T02:54:37.402Z,5.20
2022-08-05T02:57:10.178Z,5.15
2022-08-05T02:59:56.232Z,5.72
2022-08-05T03:02:30.797Z,5.35
2022-08-05T03:04:59.838Z,5.65
2022-08-05T03:08:00.435Z,5.13
2022-08-05T03:10:24.579Z,5.13
2022-08-05T03:12:54.001Z,6.03
2022-08-05T03:15:23.586Z,5.18
2022-08-05T03:17:55.828Z,5.47
2022-08-05T03:20:26.962Z,5.57
2022-08-05T03:22:57.572Z,5.30
2022-08-05T03:25:32.809Z,5.28
2022-08-05T03:28:18.853Z,5.05
2022-08-05T03:30:49.340Z,5.63
2022-08-05T03:33:19.732Z,5.45
2022-08-05T03:35:49.869Z,5.28
2022-08-05T03:38:32.759Z,5.30
2022-08-05T03:41:08.168Z,5.38
2022-08-05T03:44:09.636Z,5.28
2022-08-05T03:46:29.637Z,5.70
2022-08-05T03:49:02.055Z,5.57
2022-08-05T03:52:37.527Z,6.05
2022-08-05T03:55:53.223Z,6.03
2022-08-05T03:57:34.167Z,6.40
2022-08-05T04:00:03.781Z,5.72
2022-08-05T04:02:52.030Z,5.75
2022-08-05T04:05:33.836Z,5.60
2022-08-05T04:08:05.702Z,6.05
2022-08-05T04:10:44.278Z,4.88
2022-08-05T04:13:13.497Z,5.85
2022-08-05T04:16:02.982Z,5.50
2022-08-05T04:18:32.180Z,4.85
2022-08-05T04:21:04.958Z,5.40
2022-08-05T04:24:06.754Z,5.50
2022-08-05T04:26:22.294Z,5.38
2022-08-05T04:28:52.070Z,5.32
2022-08-05T04:31:21.151Z,5.80
2022-08-05T04:34:18.549Z,5.53
2022-08-05T04:36:45.532Z,5.80
2022-08-05T04:39:15.178Z,5.70
2022-08-05T04:41:44.398Z,5.53
2022-08-05T04:44:14.336Z,5.45
2022-08-05T04:46:46.960Z,5.43
2022-08-05T04:49:17.192Z,5.40
2022-08-05T04:52:00.563Z,5.28
2022-08-05T04:54:29.412Z,5.32
2022-08-05T04:56:59.801Z,5.10
2022-08-05T04:59:39.192Z,4.78
2022-08-05T05:02:36.231Z,5.63
2022-08-05T05:05:02.175Z,5.25
2022-08-05T05:07:35.468Z,4.80
2022-08-05T05:10:06.615Z,5.53
2022-08-05T05:12:36.808Z,5.00
2022-08-05T05:15:10.896Z,4.90
2022-08-05T05:17:55.846Z,5.45
2022-08-05T05:20:28.272Z,4.75
2022-08-05T05:22:58.989Z,4.80
2022-08-05T05:25:40.457Z,4.60
2022-08-05T05:28:09.768Z,5.50
2022-08-05T05:30:38.730Z,4.75
2022-08-05T05:33:14.111Z,5.00
2022-08-05T05:35:47.899Z,4.65
2022-08-05T05:38:22.874Z,4.75
2022-08-05T05:40:56.952Z,5.15
2022-08-05T05:43:54.065Z,5.18
2022-08-05T05:46:17.258Z,5.35
2022-08-05T05:48:48.011Z,5.10
2022-08-05T05:51:23.844Z,5.43
2022-08-05T05:53:59.021Z,4.85
2022-08-05T05:56:32.656Z,5.03
2022-08-05T05:59:05.470Z,4.85
2022-08-05T06:01:37.772Z,5.40
2022-08-05T06:04:07.313Z,4.57
2022-08-05T06:06:36.393Z,4.70
2022-08-05T06:09:07.617Z,4.93
2022-08-05T06:11:39.434Z,4.97
2022-08-05T06:14:08.322Z,6.72
2022-08-05T06:16:37.567Z,6.35
2022-08-05T06:19:07.470Z,10.07
2022-08-05T06:21:38.434Z,10.05
2022-08-05T06:24:14.657Z,8.90
2022-08-05T06:26:51.614Z,10.88
2022-08-05T06:29:43.121Z,8.70
2022-08-05T06:32:24.958Z,8.52
2022-08-05T06:34:58.357Z,8.45
2022-08-05T06:37:56.407Z,7.68
2022-08-05T06:40:21.104Z,6.45
2022-08-05T06:42:51.686Z,7.15
2022-08-05T06:45:44.045Z,7.32
2022-08-05T06:48:37.208Z,5.72
2022-08-05T06:50:58.472Z,5.28
2022-08-05T06:53:29.404Z,6.00
2022-08-05T06:56:00.419Z,5.68
2022-08-05T06:58:36.160Z,5.72
2022-08-05T07:01:06.328Z,5.00
2022-08-05T07:03:35.465Z,5.18
2022-08-05T07:06:05.811Z,5.10
2022-08-05T07:08:47.837Z,5.32
2022-08-05T07:11:25.280Z,4.82
2022-08-05T07:14:20.027Z,4.82
2022-08-05T07:18:00.823Z,4.70
2022-08-05T07:20:34.180Z,5.20
2022-08-05T07:22:38.963Z,4.93
2022-08-05T07:25:23.148Z,5.05
2022-08-05T07:28:02.709Z,4.82
2022-08-05T07:30:34.529Z,4.70
2022-08-05T07:33:09.987Z,4.80
2022-08-05T07:36:04.715Z,5.00
2022-08-05T07:38:34.078Z,4.47
2022-08-05T07:42:09.395Z,4.50
2022-08-05T07:43:56.411Z,4.55
2022-08-05T07:46:26.501Z,4.47
2022-08-05T07:49:03.765Z,4.65
2022-08-05T07:51:36.820Z,4.78
2022-08-05T07:54:11.445Z,4.50
2022-08-05T07:57:01.731Z,5.05
2022-08-05T07:59:40.527Z,4.10
2022-08-05T08:02:16.253Z,5.00
2022-08-05T08:04:49.923Z,5.43
2022-08-05T08:07:22.779Z,5.10
2022-08-05T08:09:55.244Z,5.30
2022-08-05T08:12:37.378Z,5.07
2022-08-05T08:15:15.479Z,5.55
2022-08-05T08:17:49.921Z,4.95
2022-08-05T08:21:00.144Z,5.00
2022-08-05T08:24:00.177Z,4.60
2022-08-05T08:26:02.705Z,4.82
2022-08-05T08:28:36.183Z,5.25
2022-08-05T08:31:07.662Z,5.13
2022-08-05T08:33:38.403Z,5.18
2022-08-05T08:38:57.089Z,5.28
2022-08-05T08:41:52.183Z,5.57
2022-08-05T08:45:16.308Z,5.18
2022-08-05T08:47:47.405Z,5.63
2022-08-05T08:50:13.238Z,5.80
2022-08-05T08:52:51.520Z,5.88
2022-08-05T08:56:02.773Z,6.05
2022-08-05T08:58:12.955Z,5.68
2022-08-05T09:00:44.526Z,6.22
2022-08-05T09:03:16.148Z,6.00
2022-08-05T09:06:08.789Z,6.70
2022-08-05T09:08:40.233Z,6.03
2022-08-05T09:11:12.208Z,6.80
2022-08-05T09:14:10.372Z,6.55
2022-08-05T09:16:31.771Z,5.72
2022-08-05T09:19:01.933Z,5.88
2022-08-05T09:22:17.685Z,6.30
2022-08-05T09:24:24.511Z,5.95
2022-08-05T09:26:53.581Z,6.00
2022-08-05T09:29:30.984Z,6.15
2022-08-05T09:32:46.089Z,5.57
2022-08-05T09:34:54.998Z,5.72
2022-08-05T09:40:30.395Z,6.35
2022-08-05T09:43:01.300Z,6.18
2022-08-05T09:46:06.379Z,6.15
2022-08-05T09:48:28.487Z,6.55
2022-08-05T09:51:01.016Z,6.40
2022-08-05T09:53:54.396Z,6.15
2022-08-05T09:56:26.417Z,6.00
2022-08-05T09:58:58.542Z,5.95
2022-08-05T10:01:31.903Z,5.38
2022-08-05T10:04:04.538Z,6.07
2022-08-05T10:06:41.600Z,5.85
2022-08-05T10:09:27.772Z,5.65
2022-08-05T10:11:57.263Z,5.10
2022-08-05T10:14:28.296Z,5.45
2022-08-05T10:20:02.890Z,5.85
2022-08-05T10:22:30.295Z,5.57
2022-08-05T10:25:03.551Z,6.00
2022-08-05T10:28:13.611Z,5.38
2022-08-05T10:31:20.428Z,5.20
2022-08-05T10:33:15.009Z,5.32
2022-08-05T10:35:45.009Z,5.15
2022-08-05T10:38:17.515Z,5.20
2022-08-05T10:40:58.143Z,5.30
2022-08-05T10:43:35.821Z,4.95
2022-08-05T10:46:07.133Z,5.47
2022-08-05T10:48:40.653Z,5.03
2022-08-05T10:51:28.835Z,4.95
2022-08-05T10:54:05.975Z,5.15
2022-08-05T10:56:52.818Z,5.25
2022-08-05T11:00:03.522Z,5.43
2022-08-05T11:02:38.361Z,5.60
2022-08-05T11:05:07.583Z,5.43
2022-08-05T11:10:29.121Z,5.00
2022-08-05T11:15:59.575Z,5.57
2022-08-05T11:18:27.560Z,5.20
2022-08-05T11:20:59.342Z,5.78
2022-08-05T11:24:04.386Z,5.47
2022-08-05T11:26:32.220Z,5.15
2022-08-05T11:29:12.667Z,5.07
2022-08-05T11:31:54.370Z,4.97
2022-08-05T11:34:38.038Z,4.60
2022-08-05T11:38:28.523Z,5.38
2022-08-05T11:40:03.377Z,4.97
2022-08-05T11:42:37.830Z,4.85
2022-08-05T11:45:23.387Z,5.05
2022-08-05T11:47:59.836Z,4.82
2022-08-05T11:50:29.479Z,4.63
2022-08-05T11:52:58.483Z,4.47
2022-08-05T11:55:32.008Z,4.50
2022-08-05T11:58:10.895Z,4.35
2022-08-05T12:00:44.356Z,4.40
2022-08-05T12:03:24.069Z,4.45
2022-08-05T12:06:00.819Z,4.70
2022-08-05T12:08:31.723Z,4.47
2022-08-05T12:11:04.123Z,4.80
2022-08-05T12:13:48.999Z,4.32
2022-08-05T12:16:25.426Z,4.47
2022-08-05T12:18:56.112Z,4.05
2022-08-05T12:21:26.858Z,4.00
2022-08-05T12:24:04.345Z,4.30
2022-08-05T12:26:34.550Z,4.35
2022-08-05T12:29:05.066Z,4.47
2022-08-05T12:31:46.105Z,4.07
2022-08-05T12:34:21.300Z,4.00
2022-08-05T12:36:53.498Z,4.68
2022-08-05T12:39:23.705Z,4.40
2022-08-05T12:41:59.647Z,4.25
2022-08-05T12:44:34.019Z,3.95
2022-08-05T12:47:03.613Z,4.43
2022-08-05T12:50:03.016Z,4.18
2022-08-05T12:52:37.998Z,4.93
2022-08-05T12:55:22.004Z,4.10
2022-08-05T12:58:48.355Z,4.38
2022-08-05T13:02:02.218Z,4.13
2022-08-05T13:03:41.475Z,3.70
2022-08-05T13:06:13.939Z,4.40
2022-08-05T13:08:50.843Z,4.32
2022-08-05T13:11:59.992Z,4.80
2022-08-05T13:14:19.893Z,4.28
2022-08-05T13:16:51.687Z,4.28
2022-08-05T13:19:22.524Z,4.68
2022-08-05T13:21:55.934Z,4.10
2022-08-05T13:24:27.723Z,3.92
2022-08-05T13:27:17.129Z,4.32
2022-08-05T13:30:34.837Z,4.43
2022-08-05T13:32:53.048Z,4.50
2022-08-05T13:35:31.444Z,4.07
2022-08-05T13:38:28.214Z,3.80
2022-08-05T13:41:00.251Z,4.18
2022-08-05T13:43:43.990Z,3.72
2022-08-05T13:46:30.847Z,4.18
2022-08-05T13:49:10.502Z,3.90
2022-08-05T13:51:41.532Z,4.00
2022-08-05T13:54:15.485Z,4.20
2022-08-05T13:56:51.067Z,4.47
2022-08-05T13:59:21.013Z,4.20
2022-08-05T14:01:57.651Z,4.05
2022-08-05T14:04:50.171Z,4.82
2022-08-05T14:07:26.218Z,4.45
2022-08-05T14:10:09.629Z,3.83
2022-08-05T14:12:38.416Z,4.18
2022-08-05T14:16:08.476Z,4.18
2022-08-05T14:17:59.416Z,4.15
2022-08-05T14:20:30.734Z,4.25
2022-08-05T14:22:59.536Z,4.28
2022-08-05T14:25:30.249Z,3.85
2022-08-05T14:27:59.495Z,4.30
2022-08-05T14:30:29.917Z,4.68
2022-08-05T14:32:58.906Z,4.03
2022-08-05T14:35:50.055Z,4.25
2022-08-05T14:38:32.015Z,4.10
2022-08-05T14:41:06.320Z,4.05
2022-08-05T14:44:02.393Z,3.55
2022-08-05T14:46:28.366Z,3.97
2022-08-05T14:48:58.959Z,4.00
2022-08-05T14:51:32.460Z,4.20
2022-08-05T14:54:27.724Z,4.32
2022-08-05T14:56:51.717Z,3.85
2022-08-05T14:59:23.658Z,4.05
2022-08-05T15:01:53.820Z,4.30
2022-08-05T15:04:22.847Z,4.40
2022-08-05T15:06:51.753Z,4.28
2022-08-05T15:09:51.574Z,4.43
2022-08-05T15:12:16.917Z,4.80
2022-08-05T15:14:50.139Z,4.82
2022-08-05T15:17:46.721Z,4.43
2022-08-05T15:20:15.630Z,4.40
2022-08-05T15:22:46.214Z,4.50
2022-08-05T15:25:23.385Z,4.80
2022-08-05T15:28:14.259Z,4.53
2022-08-05T15:30:43.672Z,4.32
2022-08-05T15:33:56.678Z,4.57
2022-08-05T15:36:04.205Z,4.45
2022-08-05T15:38:40.895Z,4.25
2022-08-05T15:41:20.832Z,4.30
2022-08-05T15:43:54.477Z,4.47
2022-08-05T15:46:24.733Z,4.70
2022-08-05T15:49:00.697Z,4.65
2022-08-05T15:52:09.706Z,4.35
2022-08-05T15:54:19.634Z,4.43
2022-08-05T15:56:49.660Z,4.88
2022-08-05T15:59:22.244Z,5.05
2022-08-05T16:01:52.969Z,4.40
2022-08-05T16:04:25.398Z,4.80
2022-08-05T16:06:55.675Z,4.85
2022-08-05T16:09:25.001Z,4.72
2022-08-05T16:11:55.051Z,4.40
2022-08-05T16:14:25.197Z,4.75
2022-08-05T16:16:56.693Z,5.00
2022-08-05T16:20:05.106Z,4.78
2022-08-05T16:22:15.617Z,4.60
2022-08-05T16:24:51.443Z,4.85
2022-08-05T16:27:46.764Z,4.93
2022-08-05T16:30:25.550Z,4.95
2022-08-05T16:32:56.143Z,4.78
2022-08-05T16:35:28.547Z,4.60
2022-08-05T16:38:03.202Z,4.88
2022-08-05T16:40:51.748Z,4.88
2022-08-05T16:43:26.413Z,5.20
2022-08-05T16:46:07.351Z,4.72
2022-08-05T16:48:41.690Z,4.95
2022-08-05T16:51:11.178Z,5.05
2022-08-05T16:54:04.737Z,4.60
2022-08-05T16:56:30.801Z,4.63
2022-08-05T16:59:07.563Z,4.70
2022-08-05T17:01:53.709Z,4.97
2022-08-05T17:04:26.071Z,4.70
2022-08-05T17:07:00.249Z,4.60
2022-08-05T17:09:29.920Z,4.95
2022-08-05T17:12:00.144Z,5.05
2022-08-05T17:14:37.469Z,4.70
2022-08-05T17:17:09.439Z,4.35
2022-08-05T17:19:45.330Z,4.97
2022-08-05T17:22:24.697Z,5.00
2022-08-05T17:24:57.481Z,4.80
2022-08-05T17:27:34.016Z,4.90
2022-08-05T17:30:04.639Z,4.32
2022-08-05T17:32:42.018Z,4.55
2022-08-05T17:35:12.166Z,5.00
2022-08-05T17:37:45.247Z,4.80
2022-08-05T17:40:15.365Z,5.20
2022-08-05T17:42:50.565Z,4.72
2022-08-05T17:45:22.935Z,4.82
2022-08-05T17:47:55.066Z,5.28
2022-08-05T17:50:28.032Z,4.47
2022-08-05T17:52:59.500Z,5.35
2022-08-05T17:55:37.768Z,5.03
2022-08-05T17:58:10.907Z,5.70
2022-08-05T18:06:10.989Z,5.28
2022-08-05T18:08:44.539Z,5.22
2022-08-05T18:11:23.891Z,5.10
2022-08-05T18:13:59.643Z,4.82
2022-08-05T18:16:29.198Z,5.50
2022-08-05T18:18:59.306Z,5.25
2022-08-05T18:22:07.201Z,5.15
2022-08-05T18:24:16.519Z,5.30
2022-08-05T18:26:45.199Z,5.45
2022-08-05T18:29:17.019Z,5.00
2022-08-05T18:31:45.967Z,4.97
2022-08-05T18:34:21.774Z,5.43
2022-08-05T18:36:50.840Z,5.53
2022-08-05T18:40:29.830Z,5.72
2022-08-05T18:42:11.582Z,85.95
2022-08-05T18:44:49.330Z,135.20
2022-08-05T18:47:26.614Z,150.85
2022-08-05T18:50:15.867Z,123.85
2022-08-05T18:52:50.570Z,142.65
2022-08-05T18:55:21.529Z,133.05
2022-08-05T18:57:54.143Z,121.25
2022-08-05T19:00:34.685Z,100.97
2022-08-05T19:03:04.756Z,85.93
2022-08-05T19:06:12.566Z,80.18
2022-08-05T19:08:30.720Z,118.80
2022-08-05T19:11:04.954Z,202.10
2022-08-05T19:13:36.893Z,204.48
2022-08-05T19:16:25.131Z,271.15
2022-08-05T19:18:56.728Z,267.15
2022-08-05T19:21:34.155Z,135.63
2022-08-05T19:24:08.946Z,76.70
2022-08-05T19:26:54.793Z,42.30
2022-08-05T19:29:26.745Z,26.17
2022-08-05T19:32:06.180Z,13.18
2022-08-05T19:34:37.422Z,11.18
2022-08-05T19:37:09.955Z,9.68
2022-08-05T19:39:45.685Z,9.35
2022-08-05T19:42:35.536Z,9.35
2022-08-05T19:45:05.616Z,7.43
2022-08-05T19:47:37.457Z,7.40
2022-08-05T19:52:38.170Z,7.82
2022-08-05T19:56:11.558Z,7.07
2022-08-05T19:58:06.734Z,7.00
2022-08-05T20:00:44.621Z,5.95
2022-08-05T20:03:13.326Z,7.00
2022-08-05T20:05:50.023Z,6.75
2022-08-05T20:08:24.246Z,6.57
2022-08-05T20:10:53.938Z,6.68
2022-08-05T20:13:54.597Z,6.28
2022-08-05T20:16:11.369Z,5.68
2022-08-05T20:18:40.849Z,6.60
2022-08-05T20:21:09.907Z,5.95
2022-08-05T20:23:51.113Z,6.55
2022-08-05T20:26:20.453Z,7.57
2022-08-05T20:28:50.897Z,73.88
2022-08-05T20:31:21.368Z,130.73
2022-08-05T20:33:50.170Z,135.25
2022-08-05T20:36:19.061Z,152.45
2022-08-05T20:38:54.461Z,145.60
2022-08-05T20:41:43.537Z,142.07
2022-08-05T20:44:17.457Z,102.22
2022-08-05T20:46:48.357Z,88.13
2022-08-05T20:49:23.943Z,60.90
2022-08-05T20:51:54.046Z,136.23
2022-08-05T20:54:25.293Z,257.02
2022-08-05T20:56:54.104Z,292.40
2022-08-05T20:59:26.844Z,281.65
2022-08-05T21:02:11.379Z,348.83
2022-08-05T21:04:47.078Z,361.55
2022-08-05T21:07:15.938Z,299.70
2022-08-05T21:09:50.119Z,245.57
2022-08-05T21:12:22.331Z,199.23
2022-08-05T21:14:55.435Z,146.27
2022-08-05T21:17:26.285Z,156.25
2022-08-05T21:19:57.312Z,113.25
2022-08-05T21:22:27.654Z,92.03
2022-08-05T21:24:58.421Z,92.03
2022-08-05T21:27:28.060Z,67.22
2022-08-05T21:30:08.268Z,66.97
2022-08-05T21:32:37.411Z,63.30
2022-08-05T21:35:18.259Z,43.70
2022-08-05T21:37:57.219Z,57.97
2022-08-05T21:40:27.407Z,38.80
2022-08-05T21:42:56.096Z,39.28
2022-08-05T21:45:51.438Z,29.00
2022-08-05T21:48:16.570Z,26.83
2022-08-05T21:53:21.846Z,22.52
2022-08-05T21:56:05.441Z,17.20
2022-08-05T21:58:57.145Z,16.67
2022-08-05T22:01:26.838Z,14.10
2022-08-05T22:03:56.137Z,13.10
2022-08-05T22:06:35.518Z,12.68
2022-08-05T22:09:13.646Z,10.68
2022-08-05T22:11:46.714Z,9.45
2022-08-05T22:14:37.171Z,8.73
2022-08-05T22:17:06.956Z,7.45
2022-08-05T22:19:57.476Z,6.47
2022-08-05T22:22:26.854Z,6.55
2022-08-05T22:25:20.955Z,7.57
2022-08-05T22:28:10.295Z,6.40
2022-08-05T22:30:56.439Z,5.57
2022-08-05T22:33:56.911Z,5.68
2022-08-05T22:36:16.036Z,5.93
2022-08-05T22:38:48.734Z,5.50
2022-08-05T22:42:05.099Z,5.25
2022-08-05T22:44:08.821Z,5.80
2022-08-05T22:46:39.391Z,5.28
2022-08-05T22:49:12.493Z,5.35
2022-08-05T22:52:06.445Z,5.53
2022-08-05T22:54:37.132Z,5.45
2022-08-05T22:57:07.707Z,6.03
2022-08-05T22:59:45.931Z,6.00
2022-08-05T23:02:17.802Z,5.78
2022-08-05T23:04:51.625Z,5.50
2022-08-05T23:07:22.139Z,5.68
2022-08-05T23:09:58.141Z,5.50
2022-08-05T23:12:32.778Z,5.95
2022-08-05T23:15:04.029Z,5.57
2022-08-05T23:18:00.997Z,5.35
2022-08-05T23:20:26.791Z,5.93
2022-08-05T23:22:58.666Z,5.82
2022-08-05T23:25:51.133Z,4.75
2022-08-05T23:28:17.368Z,5.22
2022-08-05T23:30:53.784Z,5.30
2022-08-05T23:33:26.300Z,5.25
2022-08-05T23:36:13.546Z,4.63
2022-08-05T23:38:43.560Z,4.80
2022-08-05T23:41:12.869Z,4.65
2022-08-05T23:44:08.569Z,4.15
2022-08-05T23:46:32.054Z,3.97
2022-08-05T23:49:02.165Z,3.40
2022-08-05T23:52:02.758Z,3.50
2022-08-05T23:54:38.128Z,3.53
2022-08-05T23:57:07.933Z,2.80
